sensor_id;sensor_type;location;lat;lon;timestamp;P1;durP1;ratioP1;P2;durP2;ratioP2
70157;SDS011;57524;48.312;7.938;2022-07-23T00:01:25;10.85;;;6.78;;
70157;SDS011;57524;48.312;7.938;2022-07-23T00:03:52;10.68;;;6.88;;
70157;SDS011;57524;48.312;7.938;2022-07-23T00:06:20;10.40;;;6.70;;
70157;SDS011;57524;48.312;7.938;2022-07-23T00:08:46;9.45;;;6.45;;
70157;SDS011;57524;48.312;7.938;2022-07-23T00:11:14;8.88;;;6.18;;
70157;SDS011;57524;48.312;7.938;2022-07-23T00:14:06;9.32;;;6.07;;
70157;SDS011;57524;48.312;7.938;2022-07-23T00:16:32;9.77;;;6.47;;
70157;SDS011;57524;48.312;7.938;2022-07-23T00:18:59;9.23;;;6.00;;
70157;SDS011;57524;48.312;7.938;2022-07-23T00:21:27;8.15;;;6.10;;
70157;SDS011;57524;48.312;7.938;2022-07-23T00:23:54;9.15;;;5.97;;
70157;SDS011;57524;48.312;7.938;2022-07-23T00:26:22;8.88;;;5.80;;
70157;SDS011;57524;48.312;7.938;2022-07-23T00:28:49;8.70;;;5.80;;
70157;SDS011;57524;48.312;7.938;2022-07-23T00:31:15;9.20;;;5.43;;
70157;SDS011;57524;48.312;7.938;2022-07-23T00:33:43;8.75;;;6.05;;
70157;SDS011;57524;48.312;7.938;2022-07-23T00:36:10;8.80;;;5.95;;
70157;SDS011;57524;48.312;7.938;2022-07-23T00:38:37;8.13;;;5.40;;
70157;SDS011;57524;48.312;7.938;2022-07-23T00:41:03;10.23;;;5.78;;
70157;SDS011;57524;48.312;7.938;2022-07-23T00:43:32;10.13;;;5.80;;
70157;SDS011;57524;48.312;7.938;2022-07-23T00:45:59;8.57;;;5.60;;
70157;SDS011;57524;48.312;7.938;2022-07-23T00:48:26;8.85;;;5.55;;
70157;SDS011;57524;48.312;7.938;2022-07-23T00:50:53;9.88;;;6.10;;
70157;SDS011;57524;48.312;7.938;2022-07-23T00:53:19;8.77;;;6.22;;
70157;SDS011;57524;48.312;7.938;2022-07-23T00:55:46;9.48;;;6.20;;
70157;SDS011;57524;48.312;7.938;2022-07-23T00:58:16;9.32;;;6.28;;
70157;SDS011;57524;48.312;7.938;2022-07-23T01:00:44;9.65;;;6.20;;
70157;SDS011;57524;48.312;7.938;2022-07-23T01:03:11;10.63;;;6.40;;
70157;SDS011;57524;48.312;7.938;2022-07-23T01:05:38;8.30;;;5.93;;
70157;SDS011;57524;48.312;7.938;2022-07-23T01:08:05;8.02;;;5.43;;
70157;SDS011;57524;48.312;7.938;2022-07-23T01:10:32;11.05;;;5.35;;
70157;SDS011;57524;48.312;7.938;2022-07-23T01:12:59;9.15;;;5.90;;
70157;SDS011;57524;48.312;7.938;2022-07-23T01:15:27;10.00;;;6.15;;
70157;SDS011;57524;48.312;7.938;2022-07-23T01:17:55;8.68;;;5.60;;
70157;SDS011;57524;48.312;7.938;2022-07-23T01:20:22;9.65;;;5.70;;
70157;SDS011;57524;48.312;7.938;2022-07-23T01:22:51;7.88;;;5.68;;
70157;SDS011;57524;48.312;7.938;2022-07-23T01:25:18;8.70;;;5.80;;
70157;SDS011;57524;48.312;7.938;2022-07-23T01:27:53;10.05;;;6.00;;
70157;SDS011;57524;48.312;7.938;2022-07-23T01:30:20;10.05;;;6.03;;
70157;SDS011;57524;48.312;7.938;2022-07-23T01:32:47;8.77;;;5.95;;
70157;SDS011;57524;48.312;7.938;2022-07-23T01:35:13;8.23;;;5.90;;
70157;SDS011;57524;48.312;7.938;2022-07-23T01:37:41;9.75;;;6.10;;
70157;SDS011;57524;48.312;7.938;2022-07-23T01:40:10;8.02;;;6.00;;
70157;SDS011;57524;48.312;7.938;2022-07-23T01:42:37;9.18;;;6.00;;
70157;SDS011;57524;48.312;7.938;2022-07-23T01:45:04;9.10;;;6.38;;
70157;SDS011;57524;48.312;7.938;2022-07-23T01:47:32;8.60;;;6.07;;
70157;SDS011;57524;48.312;7.938;2022-07-23T01:50:00;9.50;;;6.30;;
70157;SDS011;57524;48.312;7.938;2022-07-23T01:52:46;8.45;;;5.40;;
70157;SDS011;57524;48.312;7.938;2022-07-23T01:55:14;8.32;;;5.78;;
70157;SDS011;57524;48.312;7.938;2022-07-23T01:57:42;9.18;;;5.50;;
70157;SDS011;57524;48.312;7.938;2022-07-23T02:00:11;9.02;;;6.40;;
70157;SDS011;57524;48.312;7.938;2022-07-23T02:02:45;9.25;;;6.38;;
70157;SDS011;57524;48.312;7.938;2022-07-23T02:05:12;9.70;;;6.50;;
70157;SDS011;57524;48.312;7.938;2022-07-23T02:07:39;8.85;;;6.30;;
70157;SDS011;57524;48.312;7.938;2022-07-23T02:10:06;9.65;;;7.00;;
70157;SDS011;57524;48.312;7.938;2022-07-23T02:12:37;8.60;;;6.30;;
70157;SDS011;57524;48.312;7.938;2022-07-23T02:15:04;8.77;;;6.63;;
70157;SDS011;57524;48.312;7.938;2022-07-23T02:17:32;10.70;;;6.10;;
70157;SDS011;57524;48.312;7.938;2022-07-23T02:20:00;10.75;;;6.22;;
70157;SDS011;57524;48.312;7.938;2022-07-23T02:22:27;9.50;;;6.55;;
70157;SDS011;57524;48.312;7.938;2022-07-23T02:24:54;8.30;;;6.30;;
70157;SDS011;57524;48.312;7.938;2022-07-23T02:27:20;8.65;;;6.30;;
70157;SDS011;57524;48.312;7.938;2022-07-23T02:29:49;8.20;;;5.97;;
70157;SDS011;57524;48.312;7.938;2022-07-23T02:32:16;8.80;;;6.15;;
70157;SDS011;57524;48.312;7.938;2022-07-23T02:34:43;9.48;;;5.90;;
70157;SDS011;57524;48.312;7.938;2022-07-23T02:37:10;8.68;;;6.05;;
70157;SDS011;57524;48.312;7.938;2022-07-23T02:39:36;10.40;;;6.40;;
70157;SDS011;57524;48.312;7.938;2022-07-23T02:42:03;8.40;;;5.85;;
70157;SDS011;57524;48.312;7.938;2022-07-23T02:44:32;9.05;;;5.93;;
70157;SDS011;57524;48.312;7.938;2022-07-23T02:47:00;8.40;;;5.85;;
70157;SDS011;57524;48.312;7.938;2022-07-23T02:49:27;9.13;;;6.57;;
70157;SDS011;57524;48.312;7.938;2022-07-23T02:51:53;9.73;;;6.68;;
70157;SDS011;57524;48.312;7.938;2022-07-23T02:54:20;9.90;;;6.43;;
70157;SDS011;57524;48.312;7.938;2022-07-23T02:56:47;9.65;;;6.50;;
70157;SDS011;57524;48.312;7.938;2022-07-23T02:59:15;10.80;;;6.50;;
70157;SDS011;57524;48.312;7.938;2022-07-23T03:01:42;9.35;;;6.45;;
70157;SDS011;57524;48.312;7.938;2022-07-23T03:04:10;9.52;;;6.30;;
70157;SDS011;57524;48.312;7.938;2022-07-23T03:06:37;10.60;;;6.65;;
70157;SDS011;57524;48.312;7.938;2022-07-23T03:09:04;10.90;;;6.70;;
70157;SDS011;57524;48.312;7.938;2022-07-23T03:11:31;9.30;;;6.38;;
70157;SDS011;57524;48.312;7.938;2022-07-23T03:13:57;8.82;;;6.55;;
70157;SDS011;57524;48.312;7.938;2022-07-23T03:16:24;9.73;;;6.72;;
70157;SDS011;57524;48.312;7.938;2022-07-23T03:18:51;9.13;;;6.78;;
70157;SDS011;57524;48.312;7.938;2022-07-23T03:21:19;9.55;;;6.43;;
70157;SDS011;57524;48.312;7.938;2022-07-23T03:23:45;9.13;;;6.22;;
70157;SDS011;57524;48.312;7.938;2022-07-23T03:26:12;8.82;;;6.40;;
70157;SDS011;57524;48.312;7.938;2022-07-23T03:28:39;8.80;;;6.70;;
70157;SDS011;57524;48.312;7.938;2022-07-23T03:31:05;9.35;;;6.90;;
70157;SDS011;57524;48.312;7.938;2022-07-23T03:33:32;9.55;;;6.88;;
70157;SDS011;57524;48.312;7.938;2022-07-23T03:35:59;9.32;;;6.95;;
70157;SDS011;57524;48.312;7.938;2022-07-23T03:38:31;10.23;;;7.47;;
70157;SDS011;57524;48.312;7.938;2022-07-23T03:40:57;9.27;;;7.03;;
70157;SDS011;57524;48.312;7.938;2022-07-23T03:43:24;9.48;;;6.32;;
70157;SDS011;57524;48.312;7.938;2022-07-23T03:45:51;11.00;;;7.20;;
70157;SDS011;57524;48.312;7.938;2022-07-23T03:48:17;9.75;;;6.80;;
70157;SDS011;57524;48.312;7.938;2022-07-23T03:50:44;9.73;;;6.75;;
70157;SDS011;57524;48.312;7.938;2022-07-23T03:53:11;9.75;;;6.80;;
70157;SDS011;57524;48.312;7.938;2022-07-23T03:55:39;10.63;;;7.10;;
70157;SDS011;57524;48.312;7.938;2022-07-23T03:58:05;9.88;;;6.60;;
70157;SDS011;57524;48.312;7.938;2022-07-23T04:00:32;9.30;;;6.80;;
70157;SDS011;57524;48.312;7.938;2022-07-23T04:02:59;10.43;;;6.68;;
70157;SDS011;57524;48.312;7.938;2022-07-23T04:05:26;10.73;;;6.65;;
70157;SDS011;57524;48.312;7.938;2022-07-23T04:08:02;10.40;;;7.15;;
70157;SDS011;57524;48.312;7.938;2022-07-23T04:10:29;11.35;;;6.97;;
70157;SDS011;57524;48.312;7.938;2022-07-23T04:12:57;9.27;;;6.60;;
70157;SDS011;57524;48.312;7.938;2022-07-23T04:15:24;11.23;;;6.50;;
70157;SDS011;57524;48.312;7.938;2022-07-23T04:17:51;9.70;;;6.25;;
70157;SDS011;57524;48.312;7.938;2022-07-23T04:20:18;10.23;;;6.72;;
70157;SDS011;57524;48.312;7.938;2022-07-23T04:22:52;11.10;;;7.47;;
70157;SDS011;57524;48.312;7.938;2022-07-23T04:25:19;9.68;;;6.53;;
70157;SDS011;57524;48.312;7.938;2022-07-23T04:27:46;9.45;;;7.03;;
70157;SDS011;57524;48.312;7.938;2022-07-23T04:30:14;9.20;;;6.68;;
70157;SDS011;57524;48.312;7.938;2022-07-23T04:32:41;11.57;;;6.97;;
70157;SDS011;57524;48.312;7.938;2022-07-23T04:35:16;10.25;;;6.90;;
70157;SDS011;57524;48.312;7.938;2022-07-23T04:37:44;10.13;;;7.07;;
70157;SDS011;57524;48.312;7.938;2022-07-23T04:40:11;9.52;;;6.97;;
70157;SDS011;57524;48.312;7.938;2022-07-23T04:42:38;10.52;;;6.90;;
70157;SDS011;57524;48.312;7.938;2022-07-23T04:45:06;10.13;;;7.03;;
70157;SDS011;57524;48.312;7.938;2022-07-23T04:47:35;9.60;;;6.90;;
70157;SDS011;57524;48.312;7.938;2022-07-23T04:50:01;10.32;;;7.25;;
70157;SDS011;57524;48.312;7.938;2022-07-23T04:52:28;10.18;;;7.07;;
70157;SDS011;57524;48.312;7.938;2022-07-23T04:54:55;11.07;;;7.30;;
70157;SDS011;57524;48.312;7.938;2022-07-23T04:57:22;9.95;;;6.53;;
70157;SDS011;57524;48.312;7.938;2022-07-23T04:59:49;9.80;;;7.10;;
70157;SDS011;57524;48.312;7.938;2022-07-23T05:02:15;9.30;;;7.18;;
70157;SDS011;57524;48.312;7.938;2022-07-23T05:04:44;9.20;;;6.85;;
70157;SDS011;57524;48.312;7.938;2022-07-23T05:07:11;9.50;;;6.82;;
70157;SDS011;57524;48.312;7.938;2022-07-23T05:09:38;11.90;;;7.68;;
70157;SDS011;57524;48.312;7.938;2022-07-23T05:12:04;10.65;;;7.15;;
70157;SDS011;57524;48.312;7.938;2022-07-23T05:14:33;9.77;;;7.30;;
70157;SDS011;57524;48.312;7.938;2022-07-23T05:17:00;10.30;;;7.05;;
70157;SDS011;57524;48.312;7.938;2022-07-23T05:19:26;10.07;;;7.72;;
70157;SDS011;57524;48.312;7.938;2022-07-23T05:21:54;10.00;;;6.88;;
70157;SDS011;57524;48.312;7.938;2022-07-23T05:24:21;9.63;;;7.03;;
70157;SDS011;57524;48.312;7.938;2022-07-23T05:26:48;9.52;;;7.10;;
70157;SDS011;57524;48.312;7.938;2022-07-23T05:29:15;10.07;;;7.00;;
70157;SDS011;57524;48.312;7.938;2022-07-23T05:31:42;9.95;;;7.10;;
70157;SDS011;57524;48.312;7.938;2022-07-23T05:34:08;10.20;;;7.10;;
70157;SDS011;57524;48.312;7.938;2022-07-23T05:36:36;10.73;;;7.32;;
70157;SDS011;57524;48.312;7.938;2022-07-23T05:39:04;9.48;;;7.30;;
70157;SDS011;57524;48.312;7.938;2022-07-23T05:41:35;10.57;;;7.20;;
70157;SDS011;57524;48.312;7.938;2022-07-23T05:44:03;10.57;;;7.32;;
70157;SDS011;57524;48.312;7.938;2022-07-23T05:46:31;11.48;;;7.28;;
70157;SDS011;57524;48.312;7.938;2022-07-23T05:49:03;11.88;;;7.00;;
70157;SDS011;57524;48.312;7.938;2022-07-23T05:51:49;9.98;;;7.60;;
70157;SDS011;57524;48.312;7.938;2022-07-23T05:54:23;9.80;;;7.00;;
70157;SDS011;57524;48.312;7.938;2022-07-23T05:56:50;9.77;;;7.40;;
70157;SDS011;57524;48.312;7.938;2022-07-23T05:59:17;10.15;;;7.15;;
70157;SDS011;57524;48.312;7.938;2022-07-23T06:01:45;11.05;;;7.45;;
70157;SDS011;57524;48.312;7.938;2022-07-23T06:04:11;10.07;;;6.95;;
70157;SDS011;57524;48.312;7.938;2022-07-23T06:06:45;9.82;;;7.05;;
70157;SDS011;57524;48.312;7.938;2022-07-23T06:09:11;11.15;;;7.18;;
70157;SDS011;57524;48.312;7.938;2022-07-23T06:11:41;9.95;;;7.25;;
70157;SDS011;57524;48.312;7.938;2022-07-23T06:14:07;11.10;;;7.43;;
70157;SDS011;57524;48.312;7.938;2022-07-23T06:16:47;11.05;;;6.97;;
70157;SDS011;57524;48.312;7.938;2022-07-23T06:19:14;10.38;;;7.07;;
70157;SDS011;57524;48.312;7.938;2022-07-23T06:21:41;10.50;;;7.30;;
70157;SDS011;57524;48.312;7.938;2022-07-23T06:24:07;9.18;;;7.25;;
70157;SDS011;57524;48.312;7.938;2022-07-23T06:26:34;9.20;;;6.78;;
70157;SDS011;57524;48.312;7.938;2022-07-23T06:29:02;9.98;;;7.03;;
70157;SDS011;57524;48.312;7.938;2022-07-23T06:31:29;10.18;;;6.97;;
70157;SDS011;57524;48.312;7.938;2022-07-23T06:33:56;10.48;;;7.05;;
70157;SDS011;57524;48.312;7.938;2022-07-23T06:36:23;10.48;;;7.28;;
70157;SDS011;57524;48.312;7.938;2022-07-23T06:38:49;10.85;;;7.57;;
70157;SDS011;57524;48.312;7.938;2022-07-23T06:41:16;10.05;;;7.65;;
70157;SDS011;57524;48.312;7.938;2022-07-23T06:43:43;10.18;;;7.20;;
70157;SDS011;57524;48.312;7.938;2022-07-23T06:46:12;8.70;;;7.05;;
70157;SDS011;57524;48.312;7.938;2022-07-23T06:48:39;10.25;;;7.15;;
70157;SDS011;57524;48.312;7.938;2022-07-23T06:51:05;9.82;;;6.97;;
70157;SDS011;57524;48.312;7.938;2022-07-23T06:53:32;9.88;;;6.68;;
70157;SDS011;57524;48.312;7.938;2022-07-23T06:56:00;9.95;;;7.30;;
70157;SDS011;57524;48.312;7.938;2022-07-23T06:58:26;9.70;;;7.05;;
70157;SDS011;57524;48.312;7.938;2022-07-23T07:00:53;8.63;;;6.57;;
70157;SDS011;57524;48.312;7.938;2022-07-23T07:03:23;9.90;;;7.68;;
70157;SDS011;57524;48.312;7.938;2022-07-23T07:05:49;9.15;;;6.85;;
70157;SDS011;57524;48.312;7.938;2022-07-23T07:08:17;9.40;;;6.72;;
70157;SDS011;57524;48.312;7.938;2022-07-23T07:10:43;10.25;;;7.03;;
70157;SDS011;57524;48.312;7.938;2022-07-23T07:13:10;9.40;;;7.18;;
70157;SDS011;57524;48.312;7.938;2022-07-23T07:15:37;10.52;;;7.55;;
70157;SDS011;57524;48.312;7.938;2022-07-23T07:18:03;10.52;;;7.32;;
70157;SDS011;57524;48.312;7.938;2022-07-23T07:20:31;10.10;;;7.20;;
70157;SDS011;57524;48.312;7.938;2022-07-23T07:22:58;9.88;;;7.03;;
70157;SDS011;57524;48.312;7.938;2022-07-23T07:25:25;9.80;;;6.97;;
70157;SDS011;57524;48.312;7.938;2022-07-23T07:27:51;9.52;;;7.20;;
70157;SDS011;57524;48.312;7.938;2022-07-23T07:30:18;10.50;;;7.45;;
70157;SDS011;57524;48.312;7.938;2022-07-23T07:32:45;10.77;;;7.40;;
70157;SDS011;57524;48.312;7.938;2022-07-23T07:35:11;10.10;;;7.07;;
70157;SDS011;57524;48.312;7.938;2022-07-23T07:37:39;9.80;;;7.38;;
70157;SDS011;57524;48.312;7.938;2022-07-23T07:40:06;10.60;;;7.50;;
70157;SDS011;57524;48.312;7.938;2022-07-23T07:42:34;12.45;;;7.68;;
70157;SDS011;57524;48.312;7.938;2022-07-23T07:45:01;10.32;;;7.60;;
70157;SDS011;57524;48.312;7.938;2022-07-23T07:47:27;10.77;;;7.70;;
70157;SDS011;57524;48.312;7.938;2022-07-23T07:49:54;9.73;;;7.17;;
70157;SDS011;57524;48.312;7.938;2022-07-23T07:52:21;9.65;;;7.30;;
70157;SDS011;57524;48.312;7.938;2022-07-23T07:54:49;10.07;;;7.80;;
70157;SDS011;57524;48.312;7.938;2022-07-23T07:57:15;10.95;;;7.28;;
70157;SDS011;57524;48.312;7.938;2022-07-23T07:59:42;11.63;;;7.35;;
70157;SDS011;57524;48.312;7.938;2022-07-23T08:02:09;9.07;;;6.70;;
70157;SDS011;57524;48.312;7.938;2022-07-23T08:04:35;10.52;;;7.53;;
70157;SDS011;57524;48.312;7.938;2022-07-23T08:07:02;10.45;;;7.38;;
70157;SDS011;57524;48.312;7.938;2022-07-23T08:09:28;8.77;;;6.97;;
70157;SDS011;57524;48.312;7.938;2022-07-23T08:11:56;9.90;;;7.28;;
70157;SDS011;57524;48.312;7.938;2022-07-23T08:14:23;10.48;;;7.93;;
70157;SDS011;57524;48.312;7.938;2022-07-23T08:16:50;8.77;;;6.80;;
70157;SDS011;57524;48.312;7.938;2022-07-23T08:19:16;10.13;;;6.68;;
70157;SDS011;57524;48.312;7.938;2022-07-23T08:21:43;9.38;;;7.05;;
70157;SDS011;57524;48.312;7.938;2022-07-23T08:24:09;9.18;;;7.05;;
70157;SDS011;57524;48.312;7.938;2022-07-23T08:26:36;9.00;;;6.75;;
70157;SDS011;57524;48.312;7.938;2022-07-23T08:29:04;8.55;;;6.55;;
70157;SDS011;57524;48.312;7.938;2022-07-23T08:31:31;10.60;;;6.95;;
70157;SDS011;57524;48.312;7.938;2022-07-23T08:33:58;10.35;;;7.13;;
70157;SDS011;57524;48.312;7.938;2022-07-23T08:36:25;9.10;;;7.10;;
70157;SDS011;57524;48.312;7.938;2022-07-23T08:38:52;11.20;;;7.53;;
70157;SDS011;57524;48.312;7.938;2022-07-23T08:41:19;9.88;;;7.18;;
70157;SDS011;57524;48.312;7.938;2022-07-23T08:43:46;11.52;;;10.02;;
70157;SDS011;57524;48.312;7.938;2022-07-23T08:46:14;17.25;;;15.45;;
70157;SDS011;57524;48.312;7.938;2022-07-23T08:48:47;12.25;;;9.05;;
70157;SDS011;57524;48.312;7.938;2022-07-23T08:51:15;11.23;;;7.83;;
70157;SDS011;57524;48.312;7.938;2022-07-23T08:53:41;11.20;;;7.53;;
70157;SDS011;57524;48.312;7.938;2022-07-23T08:56:09;9.60;;;7.03;;
70157;SDS011;57524;48.312;7.938;2022-07-23T08:58:35;8.80;;;6.38;;
70157;SDS011;57524;48.312;7.938;2022-07-23T09:01:02;11.02;;;7.78;;
70157;SDS011;57524;48.312;7.938;2022-07-23T09:03:31;8.70;;;6.97;;
70157;SDS011;57524;48.312;7.938;2022-07-23T09:05:59;9.15;;;6.97;;
70157;SDS011;57524;48.312;7.938;2022-07-23T09:08:34;9.50;;;6.85;;
70157;SDS011;57524;48.312;7.938;2022-07-23T09:11:03;11.10;;;6.90;;
70157;SDS011;57524;48.312;7.938;2022-07-23T09:13:33;8.63;;;5.97;;
70157;SDS011;57524;48.312;7.938;2022-07-23T09:16:02;8.73;;;6.97;;
70157;SDS011;57524;48.312;7.938;2022-07-23T09:18:35;9.07;;;6.78;;
70157;SDS011;57524;48.312;7.938;2022-07-23T09:21:07;10.48;;;6.82;;
70157;SDS011;57524;48.312;7.938;2022-07-23T09:23:38;8.77;;;7.03;;
70157;SDS011;57524;48.312;7.938;2022-07-23T09:26:20;9.95;;;7.55;;
70157;SDS011;57524;48.312;7.938;2022-07-23T09:28:58;10.20;;;7.37;;
70157;SDS011;57524;48.312;7.938;2022-07-23T09:31:30;9.90;;;7.28;;
70157;SDS011;57524;48.312;7.938;2022-07-23T09:34:07;10.23;;;7.43;;
70157;SDS011;57524;48.312;7.938;2022-07-23T09:36:35;9.23;;;7.03;;
70157;SDS011;57524;48.312;7.938;2022-07-23T09:39:03;9.98;;;7.53;;
70157;SDS011;57524;48.312;7.938;2022-07-23T09:41:33;9.23;;;7.20;;
70157;SDS011;57524;48.312;7.938;2022-07-23T09:44:06;9.27;;;6.95;;
70157;SDS011;57524;48.312;7.938;2022-07-23T09:46:34;10.73;;;7.25;;
70157;SDS011;57524;48.312;7.938;2022-07-23T09:49:00;10.40;;;7.28;;
70157;SDS011;57524;48.312;7.938;2022-07-23T09:51:43;8.77;;;6.93;;
70157;SDS011;57524;48.312;7.938;2022-07-23T09:54:24;9.23;;;7.10;;
70157;SDS011;57524;48.312;7.938;2022-07-23T09:56:55;10.57;;;7.55;;
70157;SDS011;57524;48.312;7.938;2022-07-23T09:59:23;10.27;;;7.78;;
70157;SDS011;57524;48.312;7.938;2022-07-23T10:01:52;10.52;;;8.10;;
70157;SDS011;57524;48.312;7.938;2022-07-23T10:04:23;10.20;;;8.15;;
70157;SDS011;57524;48.312;7.938;2022-07-23T10:06:53;9.03;;;7.33;;
70157;SDS011;57524;48.312;7.938;2022-07-23T10:09:40;10.15;;;7.38;;
70157;SDS011;57524;48.312;7.938;2022-07-23T10:12:30;10.05;;;7.22;;
70157;SDS011;57524;48.312;7.938;2022-07-23T10:15:09;9.52;;;7.22;;
70157;SDS011;57524;48.312;7.938;2022-07-23T10:17:36;8.43;;;6.40;;
70157;SDS011;57524;48.312;7.938;2022-07-23T10:20:05;9.00;;;6.20;;
70157;SDS011;57524;48.312;7.938;2022-07-23T10:22:33;9.07;;;6.35;;
70157;SDS011;57524;48.312;7.938;2022-07-23T10:25:09;7.90;;;6.15;;
70157;SDS011;57524;48.312;7.938;2022-07-23T10:46:34;7.82;;;5.80;;
70157;SDS011;57524;48.312;7.938;2022-07-23T10:49:22;8.87;;;6.37;;
70157;SDS011;57524;48.312;7.938;2022-07-23T11:07:18;9.68;;;6.80;;
70157;SDS011;57524;48.312;7.938;2022-07-23T11:09:59;9.77;;;7.03;;
70157;SDS011;57524;48.312;7.938;2022-07-23T11:12:35;9.73;;;7.13;;
70157;SDS011;57524;48.312;7.938;2022-07-23T11:15:03;10.30;;;6.53;;
70157;SDS011;57524;48.312;7.938;2022-07-23T11:17:33;8.47;;;6.53;;
70157;SDS011;57524;48.312;7.938;2022-07-23T11:20:12;9.75;;;7.43;;
70157;SDS011;57524;48.312;7.938;2022-07-23T11:22:47;8.98;;;6.97;;
70157;SDS011;57524;48.312;7.938;2022-07-23T11:25:31;10.20;;;7.15;;
70157;SDS011;57524;48.312;7.938;2022-07-23T11:28:11;9.48;;;7.30;;
70157;SDS011;57524;48.312;7.938;2022-07-23T11:30:41;9.80;;;7.37;;
70157;SDS011;57524;48.312;7.938;2022-07-23T11:33:17;9.45;;;7.00;;
70157;SDS011;57524;48.312;7.938;2022-07-23T11:35:46;9.80;;;7.25;;
70157;SDS011;57524;48.312;7.938;2022-07-23T11:38:15;9.88;;;7.80;;
70157;SDS011;57524;48.312;7.938;2022-07-23T11:40:44;9.73;;;7.65;;
70157;SDS011;57524;48.312;7.938;2022-07-23T11:43:13;9.37;;;7.23;;
70157;SDS011;57524;48.312;7.938;2022-07-23T11:45:40;9.65;;;7.50;;
70157;SDS011;57524;48.312;7.938;2022-07-23T11:48:15;10.88;;;7.82;;
70157;SDS011;57524;48.312;7.938;2022-07-23T11:50:44;9.57;;;7.50;;
70157;SDS011;57524;48.312;7.938;2022-07-23T11:53:11;11.30;;;7.93;;
70157;SDS011;57524;48.312;7.938;2022-07-23T11:55:38;9.67;;;7.17;;
70157;SDS011;57524;48.312;7.938;2022-07-23T11:58:05;9.65;;;7.30;;
70157;SDS011;57524;48.312;7.938;2022-07-23T12:00:31;10.02;;;7.47;;
70157;SDS011;57524;48.312;7.938;2022-07-23T12:02:59;8.73;;;7.00;;
70157;SDS011;57524;48.312;7.938;2022-07-23T12:05:30;10.23;;;6.95;;
70157;SDS011;57524;48.312;7.938;2022-07-23T12:07:57;9.80;;;7.27;;
70157;SDS011;57524;48.312;7.938;2022-07-23T12:10:27;9.07;;;7.00;;
70157;SDS011;57524;48.312;7.938;2022-07-23T12:12:55;9.25;;;7.15;;
70157;SDS011;57524;48.312;7.938;2022-07-23T12:15:26;9.50;;;7.90;;
70157;SDS011;57524;48.312;7.938;2022-07-23T12:17:55;9.32;;;7.35;;
70157;SDS011;57524;48.312;7.938;2022-07-23T12:20:23;10.10;;;7.60;;
70157;SDS011;57524;48.312;7.938;2022-07-23T12:22:55;9.10;;;7.68;;
70157;SDS011;57524;48.312;7.938;2022-07-23T12:25:25;10.40;;;7.57;;
70157;SDS011;57524;48.312;7.938;2022-07-23T12:28:00;9.45;;;7.60;;
70157;SDS011;57524;48.312;7.938;2022-07-23T12:30:30;9.95;;;7.53;;
70157;SDS011;57524;48.312;7.938;2022-07-23T12:32:58;9.17;;;7.33;;
70157;SDS011;57524;48.312;7.938;2022-07-23T12:35:30;10.60;;;7.65;;
70157;SDS011;57524;48.312;7.938;2022-07-23T12:38:01;8.88;;;7.05;;
70157;SDS011;57524;48.312;7.938;2022-07-23T12:40:30;11.35;;;7.97;;
70157;SDS011;57524;48.312;7.938;2022-07-23T12:42:58;22.73;;;8.10;;
70157;SDS011;57524;48.312;7.938;2022-07-23T12:45:26;11.53;;;7.87;;
70157;SDS011;57524;48.312;7.938;2022-07-23T12:47:59;12.70;;;8.10;;
70157;SDS011;57524;48.312;7.938;2022-07-23T12:50:38;9.77;;;7.50;;
70157;SDS011;57524;48.312;7.938;2022-07-23T12:53:09;9.57;;;7.50;;
70157;SDS011;57524;48.312;7.938;2022-07-23T12:55:38;9.23;;;7.60;;
70157;SDS011;57524;48.312;7.938;2022-07-23T12:58:06;9.93;;;8.20;;
70157;SDS011;57524;48.312;7.938;2022-07-23T13:00:50;10.98;;;8.10;;
70157;SDS011;57524;48.312;7.938;2022-07-23T13:03:22;10.27;;;7.82;;
70157;SDS011;57524;48.312;7.938;2022-07-23T13:05:50;9.45;;;7.68;;
70157;SDS011;57524;48.312;7.938;2022-07-23T13:08:18;9.95;;;7.68;;
70157;SDS011;57524;48.312;7.938;2022-07-23T13:10:44;9.73;;;8.10;;
70157;SDS011;57524;48.312;7.938;2022-07-23T13:13:14;9.60;;;7.70;;
70157;SDS011;57524;48.312;7.938;2022-07-23T13:15:41;9.25;;;7.88;;
70157;SDS011;57524;48.312;7.938;2022-07-23T13:18:08;9.95;;;7.85;;
70157;SDS011;57524;48.312;7.938;2022-07-23T13:20:35;10.07;;;7.82;;
70157;SDS011;57524;48.312;7.938;2022-07-23T13:23:03;10.03;;;7.80;;
70157;SDS011;57524;48.312;7.938;2022-07-23T13:25:32;9.27;;;7.78;;
70157;SDS011;57524;48.312;7.938;2022-07-23T13:27:58;10.82;;;7.78;;
70157;SDS011;57524;48.312;7.938;2022-07-23T13:30:25;9.52;;;7.78;;
70157;SDS011;57524;48.312;7.938;2022-07-23T13:32:52;11.93;;;8.18;;
70157;SDS011;57524;48.312;7.938;2022-07-23T13:35:19;8.60;;;7.40;;
70157;SDS011;57524;48.312;7.938;2022-07-23T13:37:45;9.10;;;7.63;;
70157;SDS011;57524;48.312;7.938;2022-07-23T13:40:12;12.38;;;7.80;;
70157;SDS011;57524;48.312;7.938;2022-07-23T13:42:40;9.43;;;7.55;;
70157;SDS011;57524;48.312;7.938;2022-07-23T13:45:07;9.50;;;8.00;;
70157;SDS011;57524;48.312;7.938;2022-07-23T13:47:34;8.93;;;7.97;;
70157;SDS011;57524;48.312;7.938;2022-07-23T13:50:01;9.70;;;7.43;;
70157;SDS011;57524;48.312;7.938;2022-07-23T13:52:28;9.80;;;7.88;;
70157;SDS011;57524;48.312;7.938;2022-07-23T13:54:58;10.18;;;7.60;;
70157;SDS011;57524;48.312;7.938;2022-07-23T13:57:24;9.43;;;7.43;;
70157;SDS011;57524;48.312;7.938;2022-07-23T13:59:53;9.73;;;7.33;;
70157;SDS011;57524;48.312;7.938;2022-07-23T14:02:19;9.77;;;7.68;;
70157;SDS011;57524;48.312;7.938;2022-07-23T14:04:46;8.55;;;7.38;;
70157;SDS011;57524;48.312;7.938;2022-07-23T14:07:13;9.20;;;7.70;;
70157;SDS011;57524;48.312;7.938;2022-07-23T14:09:39;9.20;;;7.65;;
70157;SDS011;57524;48.312;7.938;2022-07-23T14:12:07;9.87;;;7.60;;
70157;SDS011;57524;48.312;7.938;2022-07-23T14:14:34;10.40;;;8.20;;
70157;SDS011;57524;48.312;7.938;2022-07-23T14:17:03;9.25;;;7.63;;
70157;SDS011;57524;48.312;7.938;2022-07-23T14:19:30;9.40;;;7.95;;
70157;SDS011;57524;48.312;7.938;2022-07-23T14:21:57;9.60;;;7.25;;
70157;SDS011;57524;48.312;7.938;2022-07-23T14:24:23;9.63;;;8.17;;
70157;SDS011;57524;48.312;7.938;2022-07-23T14:26:50;9.65;;;7.85;;
70157;SDS011;57524;48.312;7.938;2022-07-23T14:29:17;10.38;;;7.90;;
70157;SDS011;57524;48.312;7.938;2022-07-23T14:31:43;10.70;;;7.55;;
70157;SDS011;57524;48.312;7.938;2022-07-23T14:34:11;10.10;;;8.05;;
70157;SDS011;57524;48.312;7.938;2022-07-23T14:36:38;9.77;;;8.17;;
70157;SDS011;57524;48.312;7.938;2022-07-23T14:39:05;9.00;;;7.53;;
70157;SDS011;57524;48.312;7.938;2022-07-23T14:41:33;9.60;;;7.78;;
70157;SDS011;57524;48.312;7.938;2022-07-23T14:44:01;9.45;;;7.88;;
70157;SDS011;57524;48.312;7.938;2022-07-23T14:46:28;10.18;;;7.85;;
70157;SDS011;57524;48.312;7.938;2022-07-23T14:48:57;10.63;;;7.87;;
70157;SDS011;57524;48.312;7.938;2022-07-23T14:51:25;11.05;;;7.88;;
70157;SDS011;57524;48.312;7.938;2022-07-23T14:53:52;9.82;;;8.20;;
70157;SDS011;57524;48.312;7.938;2022-07-23T14:56:19;9.75;;;7.63;;
70157;SDS011;57524;48.312;7.938;2022-07-23T14:58:46;8.80;;;7.68;;
70157;SDS011;57524;48.312;7.938;2022-07-23T15:01:12;9.63;;;7.80;;
70157;SDS011;57524;48.312;7.938;2022-07-23T15:03:39;9.75;;;7.75;;
70157;SDS011;57524;48.312;7.938;2022-07-23T15:06:06;9.77;;;8.13;;
70157;SDS011;57524;48.312;7.938;2022-07-23T15:08:34;10.27;;;8.00;;
70157;SDS011;57524;48.312;7.938;2022-07-23T15:11:01;10.50;;;7.72;;
70157;SDS011;57524;48.312;7.938;2022-07-23T15:13:27;10.83;;;8.00;;
70157;SDS011;57524;48.312;7.938;2022-07-23T15:15:54;10.02;;;7.53;;
70157;SDS011;57524;48.312;7.938;2022-07-23T15:18:20;9.35;;;7.50;;
70157;SDS011;57524;48.312;7.938;2022-07-23T15:20:47;9.13;;;7.60;;
70157;SDS011;57524;48.312;7.938;2022-07-23T15:23:14;9.73;;;7.70;;
70157;SDS011;57524;48.312;7.938;2022-07-23T15:25:42;9.03;;;7.63;;